• Join FlightAware (Why Join?)
  • Login
  • US Flag 
11:27AM EDT


 

Airport Tracker/Info


-or-


 

Live Flight TrackerFlight Track Log ✈ SKW5631 ✈ 02-May-2014 ✈ KSFO - KBUR

Flight Track Log - Related Links

Times and Time Zones

All times are in EDT time to prevent confusion due to time zone crossing. See the SKW5631 flight status page for this flight to view local times or setup timezone preferences in your user account.

Time Position Orientation Groundspeed Altitude Reporting Facility
EDT Latitude Longitude Course Direction KTS MPH feet Rate Location/Type
10:38PM 37.6347 -122.3653 130° Southeast 174 200 33,000  Level Oakland Center
10:39PM 37.6667 -122.3667 358° North 190 219 2,200 -19,140 Descending Northern Cal TRACON
10:40PM 37.7167 -122.3833 345° North 250 288 4,000 1,500 Climbing Northern Cal TRACON
10:40PM 37.7322 -122.4214 297° West 241 277 4,500 2,100 Climbing Oakland Center
10:41PM 37.6864 -122.4872 229° Southwest 260 299 7,300 2,820 Climbing Oakland Center
10:42PM 37.6217 -122.5394 213° Southwest 271 312 10,300 2,160 Climbing Oakland Center
10:43PM 37.2576 -122.0948 130° Southeast  Level FlightAware Approximate
10:43PM 37.5381 -122.5172 168° South 330 380 11,800  Level Oakland Center
10:44PM 37.4647 -122.4353 138° Southeast 354 407 14,400 2,460 Climbing Oakland Center
10:45PM 37.3742 -122.3344 138° Southeast 361 415 16,900 2,040 Climbing Oakland Center
10:46PM 37.2942 -122.2456 139° Southeast 380 437 18,700 1,740 Climbing Oakland Center
10:47PM 37.2114 -122.1517 138° Southeast 398 458 20,500 1,620 Climbing Oakland Center
10:48PM 37.1261 -122.0569 138° Southeast 409 471 22,100 1,500 Climbing Oakland Center
10:49PM 37.0378 -121.9583 138° Southeast 422 486 23,600 1,560 Climbing Oakland Center
10:50PM 36.9481 -121.8583 138° Southeast 428 493 25,300 1,440 Climbing Oakland Center
10:51PM 36.8564 -121.7603 139° Southeast 431 496 26,600 1,140 Climbing Oakland Center
10:52PM 36.7661 -121.6633 139° Southeast 442 509 27,700 900 Climbing Oakland Center
10:53PM 36.6506 -121.5336 138° Southeast 464 534 28,500 1,320 Climbing Oakland Center
10:54PM 36.5511 -121.4281 140° Southeast 469 540 30,500 1,740 Climbing Oakland Center
10:55PM 36.4583 -121.3264 139° Southeast 452 520 32,100 1,200 Climbing Oakland Center
10:56PM 36.3639 -121.2231 139° Southeast 452 520 33,000 420 Climbing Oakland Center
10:57PM 36.2656 -121.1150 138° Southeast 469 540 33,000  Level Oakland Center
10:58PM 36.1625 -121.0039 139° Southeast 488 562 33,000  Level Oakland Center
10:59PM 36.0600 -120.8914 138° Southeast 490 564 33,000  Level Oakland Center
11:01PM 35.9575 -120.7819 139° Southeast 490 564 33,000  Level Oakland Center
11:02PM 35.8550 -120.6711 139° Southeast 490 564 33,000  Level Oakland Center
11:03PM 35.7586 -120.5678 139° Southeast 467 537 33,000  Level Oakland Center
11:04PM 35.6433 -120.4450 139° Southeast 459 528 33,000 -60 Level Oakland Center
11:05PM 35.5456 -120.3408 139° Southeast 460 529 32,900 -720 Descending Oakland Center
11:06PM 35.4561 -120.2467 139° Southeast 459 528 31,600 -1,680 Descending Oakland Center
11:07PM 35.3442 -120.1278 139° Southeast 471 542 29,500 -1,920 Descending Oakland Center
11:08PM 35.2494 -120.0233 138° Southeast 457 526 27,700 -1,860 Descending Oakland Center
11:09PM 35.1700 -119.9139 132° Southeast 434 499 25,700 -1,980 Descending Oakland Center
11:10PM 35.0922 -119.8064 131° Southeast 426 490 23,700 -1,920 Descending Oakland Center
11:11PM 35.0156 -119.7003 131° Southeast 422 486 21,800 -1,860 Descending Oakland Center
11:12PM 34.9417 -119.5997 132° Southeast 403 464 20,000 -1,740 Descending Oakland Center
11:13PM 34.8711 -119.5031 132° Southeast 388 447 18,300 -1,680 Descending Oakland Center
11:14PM 34.8028 -119.4100 132° Southeast 375 432 16,600 -1,620 Descending Oakland Center
11:15PM 34.7364 -119.3203 132° Southeast 362 417 15,000 -1,560 Descending Oakland Center
11:16PM 34.6692 -119.2286 132° Southeast 362 417 13,500 -1,440 Descending Oakland Center
11:17PM 34.5753 -119.1050 133° Southeast 361 415 11,700 -1,080 Descending Los Angeles Center
11:18PM 34.5117 -119.0169 131° Southeast 340 391 11,000 -840 Descending Los Angeles Center
11:19PM 34.4439 -118.9606 146° Southeast 297 342 10,000 -1,380 Descending Los Angeles Center
11:20PM 34.3819 -118.8969 140° Southeast 290 334 8,200 -1,800 Descending Los Angeles Center
11:21PM 34.3281 -118.8267 133° Southeast 286 329 6,400 -1,560 Descending Los Angeles Center
11:22PM 34.2644 -118.7475 134° Southeast 278 320 5,000 -720 Descending Los Angeles Center
11:23PM 34.2142 -118.6800 132° Southeast 274 315 5,000 -720 Level Los Angeles Center
11:24PM 34.1864 -118.6000 113° Southeast 265 305 3,600 -1,020 Descending Los Angeles Center
11:25PM 34.1606 -118.5169 111° Southeast 265 305 3,000 -540 Descending Los Angeles Center
11:26PM 34.1508 -118.4469 100° East 235 270 2,500 -540 Descending Los Angeles Center
11:27PM 34.1403 -118.3814 101° East 212 244 1,900 -600 Descending Los Angeles Center
11:28PM 34.1675 -118.3483 45° Northeast 174 200 1,300 -600 Descending Los Angeles Center
11:29PM 34.2061 -118.3578 349° North 154 177 700 -600 Descending Los Angeles Center